createdAt,value
2022-08-02T00:00:01.632Z,94.35
2022-08-02T00:05:01.631Z,94.51
2022-08-02T00:10:02.118Z,94.52
2022-08-02T00:15:01.162Z,94.61
2022-08-02T00:20:01.678Z,94.77
2022-08-02T00:25:01.961Z,94.99
2022-08-02T00:30:01.483Z,95.14
2022-08-02T00:35:01.485Z,95.07
2022-08-02T00:40:01.871Z,95.25
2022-08-02T00:45:01.633Z,95.53
2022-08-02T00:50:01.666Z,95.63
2022-08-02T00:55:01.724Z,95.63
2022-08-02T01:00:01.850Z,95.72
2022-08-02T01:05:01.942Z,95.77
2022-08-02T01:10:02.043Z,95.59
2022-08-02T01:15:01.575Z,95.56
2022-08-02T01:20:01.313Z,95.43
2022-08-02T01:25:02.049Z,95.43
2022-08-02T01:30:01.617Z,95.67
2022-08-02T01:35:01.944Z,95.79
2022-08-02T01:40:01.867Z,95.96
2022-08-02T01:45:01.988Z,96.09
2022-08-02T01:50:01.902Z,96.18
2022-08-02T01:55:02.163Z,96.41
2022-08-02T02:00:01.545Z,96.46
2022-08-02T02:05:01.809Z,96.23
2022-08-02T02:10:02.109Z,96.09
2022-08-02T02:15:01.303Z,95.86
2022-08-02T02:20:01.476Z,95.25
2022-08-02T02:25:01.722Z,94.61
2022-08-02T02:30:01.642Z,94.28
2022-08-02T02:35:01.465Z,93.91
2022-08-02T02:40:02.115Z,93.96
2022-08-02T02:45:01.471Z,94.24
2022-08-02T02:50:01.506Z,94.32
2022-08-02T02:55:01.213Z,94.59
2022-08-02T03:00:01.608Z,94.97
2022-08-02T03:05:01.396Z,95.22
2022-08-02T03:10:02.070Z,95.69
2022-08-02T03:15:01.856Z,95.98
2022-08-02T03:20:01.912Z,96.01
2022-08-02T03:25:01.627Z,96.06
2022-08-02T03:30:01.909Z,96.12
2022-08-02T03:35:01.172Z,96.38
2022-08-02T03:40:01.175Z,97.71
2022-08-02T03:45:06.260Z,97.82
2022-08-02T03:50:01.963Z,97.85
2022-08-02T03:55:01.411Z,97.55
2022-08-02T04:00:01.223Z,97.52
2022-08-02T04:05:01.351Z,97.25
2022-08-02T04:10:02.021Z,97.24
2022-08-02T04:15:01.939Z,97.05
2022-08-02T04:20:01.716Z,97.14
2022-08-02T04:25:01.543Z,97.21
2022-08-02T04:30:01.306Z,96.92
2022-08-02T04:35:19.862Z,96.25
2022-08-02T04:40:01.448Z,95.86
2022-08-02T04:45:01.736Z,95.74
2022-08-02T04:50:01.453Z,95.55
2022-08-02T04:55:01.900Z,95.12
2022-08-02T05:00:01.341Z,94.34
2022-08-02T05:05:01.251Z,93.91
2022-08-02T05:10:01.340Z,93.49
2022-08-02T05:15:01.713Z,93.58
2022-08-02T05:20:01.753Z,93.28
2022-08-02T05:25:02.039Z,92.5
2022-08-02T05:30:01.445Z,91.38
2022-08-02T05:35:01.433Z,90.71
2022-08-02T05:40:01.633Z,90.55
2022-08-02T05:45:01.219Z,89.78
2022-08-02T05:50:01.577Z,89.55
2022-08-02T05:55:01.839Z,89.07
2022-08-02T06:00:03.063Z,88.69
2022-08-02T06:05:01.623Z,87.91
2022-08-02T06:10:01.560Z,86.5
2022-08-02T06:15:01.229Z,85.32
2022-08-02T06:20:01.482Z,81.67
2022-08-02T06:25:01.824Z,80.48
2022-08-02T06:30:01.775Z,77.81
2022-08-02T06:35:01.747Z,78.25
2022-08-02T06:40:01.941Z,77.11
2022-08-02T06:45:01.961Z,75.96
2022-08-02T06:50:01.631Z,73.63
2022-08-02T06:55:01.884Z,72.53
2022-08-02T07:00:01.380Z,71.6
2022-08-02T07:05:01.208Z,69.95
2022-08-02T07:10:02.053Z,70.18
2022-08-02T07:15:01.341Z,70.47
2022-08-02T07:20:01.916Z,71.04
2022-08-02T07:25:02.013Z,69.57
2022-08-02T07:30:01.836Z,67.68
2022-08-02T07:35:03.387Z,67.62
2022-08-02T07:40:01.215Z,67.45
2022-08-02T07:45:02.077Z,66.34
2022-08-02T07:50:01.904Z,66.83
2022-08-02T07:55:01.262Z,65.64
2022-08-02T08:00:01.722Z,65.53
2022-08-02T08:05:02.103Z,64.72
2022-08-02T08:10:01.471Z,63.78
2022-08-02T08:15:01.813Z,63.43
2022-08-02T08:20:01.993Z,62.81
2022-08-02T08:25:01.381Z,63.91
2022-08-02T08:30:01.992Z,64.62
2022-08-02T08:35:01.575Z,61.47
2022-08-02T08:40:01.851Z,60.65
2022-08-02T08:45:01.257Z,60.04
2022-08-02T08:50:02.058Z,60.75
2022-08-02T08:55:02.067Z,60.97
2022-08-02T09:00:02.103Z,59.89
2022-08-02T09:05:01.993Z,59.53
2022-08-02T09:10:01.857Z,57.05
2022-08-02T09:15:01.731Z,57.24
2022-08-02T09:20:01.846Z,57.75
2022-08-02T09:25:01.991Z,56.87
2022-08-02T09:30:12.302Z,59.17
2022-08-02T09:35:01.445Z,59.97
2022-08-02T09:40:01.528Z,59.36
2022-08-02T09:45:01.576Z,59.36
2022-08-02T09:50:02.020Z,56.69
2022-08-02T09:55:01.791Z,54.34
2022-08-02T10:00:01.760Z,56.6
2022-08-02T10:05:01.473Z,59.3
2022-08-02T10:10:01.815Z,55.36
2022-08-02T10:15:01.953Z,55.57
2022-08-02T10:20:04.766Z,55.63
2022-08-02T10:25:01.838Z,56.5
2022-08-02T10:30:01.918Z,54
2022-08-02T10:35:02.759Z,53.76
2022-08-02T10:40:01.442Z,53.02
2022-08-02T10:45:01.935Z,54.36
2022-08-02T10:50:01.833Z,54.38
2022-08-02T10:55:01.841Z,54.51
2022-08-02T11:00:02.002Z,54.29
2022-08-02T11:05:01.825Z,55.02
2022-08-02T11:10:02.081Z,53.4
2022-08-02T11:15:01.183Z,50.9
2022-08-02T11:20:01.731Z,48.01
2022-08-02T11:25:01.581Z,49.23
2022-08-02T11:30:01.188Z,49.26
2022-08-02T11:35:01.416Z,51.37
2022-08-02T11:40:01.349Z,52.8
2022-08-02T11:45:01.383Z,53.48
2022-08-02T11:50:01.193Z,49.26
2022-08-02T11:55:01.489Z,49.9
2022-08-02T12:00:01.856Z,49.13
2022-08-02T12:05:01.155Z,48.53
2022-08-02T12:10:01.496Z,49.71
2022-08-02T12:15:01.994Z,48.38
2022-08-02T12:20:01.411Z,49.46
2022-08-02T12:25:02.150Z,47.94
2022-08-02T12:30:01.175Z,46.98
2022-08-02T12:35:01.859Z,47.23
2022-08-02T12:40:01.712Z,46.63
2022-08-02T12:45:01.621Z,47.78
2022-08-02T12:50:01.686Z,49.45
2022-08-02T12:55:01.301Z,47.74
2022-08-02T13:00:01.590Z,49.18
2022-08-02T13:05:01.667Z,49.18
2022-08-02T13:10:02.953Z,50.44
2022-08-02T13:15:01.329Z,50.08
2022-08-02T13:20:01.379Z,50.93
2022-08-02T13:25:01.536Z,51.83
2022-08-02T13:30:01.862Z,51.22
2022-08-02T13:35:02.113Z,52.91
2022-08-02T13:40:21.122Z,52.74
2022-08-02T13:45:11.842Z,51.29
2022-08-02T13:50:02.180Z,48.71
2022-08-02T13:55:02.047Z,47.13
2022-08-02T14:00:03.012Z,49.93
2022-08-02T14:05:02.040Z,50.45
2022-08-02T14:10:01.612Z,50.48
2022-08-02T14:15:01.287Z,49.55
2022-08-02T14:20:02.013Z,50.5
2022-08-02T14:25:09.019Z,52.01
2022-08-02T14:30:01.818Z,49.7
2022-08-02T14:35:01.545Z,51.13
2022-08-02T14:40:01.482Z,49.97
2022-08-02T14:45:01.991Z,49.42
2022-08-02T14:50:01.876Z,48.58
2022-08-02T14:55:01.301Z,49.2
2022-08-02T15:00:01.268Z,50.42
2022-08-02T15:05:01.733Z,49.4
2022-08-02T15:10:01.152Z,50.98
2022-08-02T15:15:01.226Z,51.78
2022-08-02T15:20:09.398Z,52.12
2022-08-02T15:25:02.027Z,53.77
2022-08-02T15:30:01.693Z,50.51
2022-08-02T15:35:01.982Z,50.51
2022-08-02T15:40:02.061Z,50.72
2022-08-02T15:45:02.125Z,49.9
2022-08-02T15:50:01.253Z,50.46
2022-08-02T15:55:06.930Z,53.93
2022-08-02T16:00:01.559Z,56.65
2022-08-02T16:05:01.787Z,50.8
2022-08-02T16:10:01.265Z,51.7
2022-08-02T16:15:03.362Z,51.32
2022-08-02T16:20:02.920Z,51.34
2022-08-02T16:25:01.780Z,52.5
2022-08-02T16:30:01.738Z,54.11
2022-08-02T16:35:06.978Z,53.69
2022-08-02T16:40:02.281Z,53.73
2022-08-02T16:45:01.242Z,51.2
2022-08-02T16:50:07.123Z,51.41
2022-08-02T16:55:01.497Z,54.45
2022-08-02T17:00:01.713Z,52.65
2022-08-02T17:05:01.799Z,54.41
2022-08-02T17:10:04.327Z,55.18
2022-08-02T17:15:09.035Z,54.42
2022-08-02T17:20:02.011Z,54.29
2022-08-02T17:25:01.197Z,54.75
2022-08-02T17:30:01.234Z,56.25
2022-08-02T17:35:04.046Z,55.69
2022-08-02T17:40:01.630Z,56.17
2022-08-02T17:45:16.545Z,56.09
2022-08-02T17:50:01.349Z,57.12
2022-08-02T17:55:01.629Z,56.67
2022-08-02T18:00:04.123Z,57.01
2022-08-02T18:05:02.043Z,57.9
2022-08-02T18:10:02.046Z,57.88
2022-08-02T18:15:01.304Z,60.28
2022-08-02T18:20:10.213Z,59.66
2022-08-02T18:25:01.341Z,59.25
2022-08-02T18:30:04.507Z,60.1
2022-08-02T18:35:01.958Z,61.23
2022-08-02T18:40:01.863Z,61.6
2022-08-02T18:45:01.931Z,61.47
2022-08-02T18:50:01.502Z,63.25
2022-08-02T18:55:01.613Z,63.45
2022-08-02T19:00:02.106Z,64.64
2022-08-02T19:05:01.403Z,64.3
2022-08-02T19:10:01.160Z,65.23
2022-08-02T19:15:02.101Z,66.26
2022-08-02T19:20:01.156Z,65.54
2022-08-02T19:25:02.060Z,65.63
2022-08-02T19:30:02.204Z,66.35
2022-08-02T19:35:01.551Z,67
2022-08-02T19:40:01.170Z,66.86
2022-08-02T19:45:01.274Z,67.5
2022-08-02T19:50:02.048Z,68.63
2022-08-02T19:55:58.477Z,69.69
2022-08-02T20:00:01.818Z,70.08
2022-08-02T20:05:16.479Z,70.76
2022-08-02T20:10:01.384Z,71.43
2022-08-02T20:15:02.056Z,72.24
2022-08-02T20:20:01.556Z,72.5
2022-08-02T20:25:02.059Z,72.64
2022-08-02T20:30:01.877Z,73.01
2022-08-02T20:35:01.807Z,72.79
2022-08-02T20:40:01.757Z,73.37
2022-08-02T20:45:01.275Z,73.84
2022-08-02T20:50:01.508Z,75.21
2022-08-02T20:55:01.714Z,75.57
2022-08-02T21:00:01.861Z,76
2022-08-02T21:05:07.630Z,76.83
2022-08-02T21:10:02.006Z,76.78
2022-08-02T21:15:01.647Z,76.72
2022-08-02T21:20:02.053Z,77.39
2022-08-02T21:25:01.180Z,77.66
2022-08-02T21:30:01.906Z,77.84
2022-08-02T21:35:01.670Z,77.52
2022-08-02T21:40:02.124Z,77.74
2022-08-02T21:45:01.229Z,76.88
2022-08-02T21:50:13.424Z,76.55
2022-08-02T21:55:01.260Z,76.26
2022-08-02T22:00:02.034Z,76.89
2022-08-02T22:05:02.654Z,77.11
2022-08-02T22:10:01.660Z,76.95
2022-08-02T22:15:02.007Z,77.88
2022-08-02T22:20:01.865Z,78.35
2022-08-02T22:25:01.448Z,78.22
2022-08-02T22:30:01.366Z,78.95
2022-08-02T22:35:02.046Z,79.23
2022-08-02T22:40:06.051Z,78.72
2022-08-02T22:45:01.829Z,77.42
2022-08-02T22:50:01.520Z,77.18
2022-08-02T22:55:01.207Z,76.74
2022-08-02T23:00:01.825Z,77.32
2022-08-02T23:05:01.445Z,77.19
2022-08-02T23:10:01.919Z,77.19
2022-08-02T23:15:02.069Z,78.55
2022-08-02T23:20:01.416Z,78.61
2022-08-02T23:25:01.385Z,77.53
2022-08-02T23:30:01.805Z,78.06
2022-08-02T23:35:01.330Z,78.84
2022-08-02T23:40:01.477Z,78.29
2022-08-02T23:45:02.094Z,77.7
2022-08-02T23:50:01.263Z,77.52
2022-08-02T23:55:01.689Z,77.35
